Otsego, New York
Current Conditions -  °F | °C
As of 7:55 PM on Wednesday 17 Dec 2014 (Local Time) from KNY0 Reporting Station
Overcast Overcast  
Wind Chill: 21°   Ceiling: 1400
Heat Index: 32°   Visibility: 10mi
Dew Point: 29°   Wind: 17mph
Humidity: 90%   Direction: 280°W
Pressure: 29.83"   Gusts: 26mph
Location:  42.7373°N, 74.9926°W
Report Text: KNY0 180055Z AUTO 28015G23KT 10SM OVC014 00/M01 A2983 RMK AO2 T00001015
Loading
Personal Weather Stations






























Interactive Weather Map New forecast layout! Learn more

10-Day Weather Forecast

Advertisements
Track Severe Weather on mobile